KFEP/FEP METAR and TAF weather

Enter ICAO airport designator
Station Type Date Time Source
KFEP METAR 2019/12/14 11:15 UTC NOAA

KFEP 141115Z AUTO 32009KT 4SM BR OVC009 M01/M02 A2974 RMK AO2 T10111017


Station Type Date Time Source
KFEP Decoded METAR 2019/12/14 11:15 UTC NOAA

Freeport, Albertus Airport, IL, United States (KFEP) 42-14-47N 089-34-56W
Dec 14, 2019 - 06:15 AM EST / 2019.12.14 1115 UTC
Wind: from the NW (320 degrees) at 10 MPH (9 KT):0
Visibility: 4 mile(s):0
Sky conditions: overcast
Weather: mist
Temperature: 30.0 F (-1.1 C)
Windchill: 21 F (-6 C):1
Dew Point: 28.9 F (-1.7 C)
Relative Humidity: 95%
Pressure (altimeter): 29.74 in. Hg (1007 hPa)
ob: KFEP 141115Z AUTO 32009KT 4SM BR OVC009 M01/M02 A2974 RMK AO2 T10111017
cycle: 11

Station Type Date Time Source
KFEP TAF UTC NOAA

Error!

Example: see airport list